createdAt,value
2023-03-29T00:00:35.876Z,96763.31
2023-03-29T00:02:07.831Z,96760.28
2023-03-29T00:03:40.377Z,96758.88
2023-03-29T00:05:13.252Z,96769.22
2023-03-29T00:06:47.731Z,96776.06
2023-03-29T00:08:21.999Z,96774.97
2023-03-29T00:09:53.715Z,96777.84
2023-03-29T00:11:25.783Z,96766.31
2023-03-29T00:12:57.410Z,96785.00
2023-03-29T00:14:30.634Z,96784.56
2023-03-29T00:16:04.267Z,96794.91
2023-03-29T00:17:36.083Z,96772.94
2023-03-29T00:19:07.755Z,96763.75
2023-03-29T00:20:39.391Z,96756.38
2023-03-29T00:22:11.083Z,96761.44
2023-03-29T00:23:42.685Z,96778.81
2023-03-29T00:25:14.327Z,96764.84
2023-03-29T00:26:46.010Z,96769.34
2023-03-29T00:28:17.905Z,96777.75
2023-03-29T00:29:49.532Z,96755.09
2023-03-29T00:31:22.583Z,96736.03
2023-03-29T00:32:54.297Z,96751.56
2023-03-29T00:34:26.528Z,96773.56
2023-03-29T00:35:58.241Z,96769.22
2023-03-29T00:37:30.035Z,96761.94
2023-03-29T00:39:01.676Z,96751.34
2023-03-29T00:40:33.340Z,96746.38
2023-03-29T00:42:05.149Z,96742.75
2023-03-29T00:43:57.999Z,96730.97
2023-03-29T00:45:34.123Z,96736.91
2023-03-29T00:47:07.236Z,96730.69
2023-03-29T00:48:39.345Z,96726.78
2023-03-29T00:50:14.357Z,96727.56
2023-03-29T00:51:46.221Z,96729.72
2023-03-29T00:53:19.454Z,96729.72
2023-03-29T00:54:53.025Z,96733.66
2023-03-29T00:56:25.606Z,96736.00
2023-03-29T00:57:57.253Z,96729.94
2023-03-29T00:59:28.964Z,96739.28
2023-03-29T01:01:02.294Z,96739.28
2023-03-29T01:02:39.677Z,96732.41
2023-03-29T01:04:18.245Z,96730.06
2023-03-29T01:05:49.911Z,96723.69
2023-03-29T01:07:22.744Z,96732.09
2023-03-29T01:08:55.318Z,96725.25
2023-03-29T01:10:29.651Z,96723.22
2023-03-29T01:12:02.445Z,96729.47
2023-03-29T01:13:35.850Z,96739.75
2023-03-29T01:15:10.087Z,96738.34
2023-03-29T01:16:41.843Z,96749.25
2023-03-29T01:18:14.976Z,96742.09
2023-03-29T01:19:50.270Z,96746.28
2023-03-29T01:21:23.560Z,96738.81
2023-03-29T01:23:13.921Z,96734.13
2023-03-29T01:24:55.094Z,96722.94
2023-03-29T01:26:29.694Z,96719.03
2023-03-29T01:28:03.717Z,96713.25
2023-03-29T01:29:36.133Z,96693.31
2023-03-29T01:31:08.628Z,96711.09
2023-03-29T01:32:44.529Z,96705.47
2023-03-29T01:34:18.750Z,96695.34
2023-03-29T01:35:52.683Z,96682.13
2023-03-29T01:37:26.642Z,96706.16
2023-03-29T01:38:59.385Z,96699.63
2023-03-29T01:40:32.469Z,96707.88
2023-03-29T01:42:13.186Z,96720.63
2023-03-29T01:43:48.272Z,96720.16
2023-03-29T01:45:22.562Z,96723.25
2023-03-29T01:46:55.966Z,96735.91
2023-03-29T01:48:28.763Z,96717.06
2023-03-29T01:50:06.430Z,96704.59
2023-03-29T01:51:39.645Z,96704.59
2023-03-29T01:53:12.951Z,96710.53
2023-03-29T01:54:47.678Z,96725.31
2023-03-29T01:56:21.484Z,96715.03
2023-03-29T01:57:54.030Z,96702.69
2023-03-29T01:59:28.454Z,96707.50
2023-03-29T02:01:00.297Z,96699.56
2023-03-29T02:02:32.193Z,96703.44
2023-03-29T02:04:04.934Z,96687.25
2023-03-29T02:05:36.963Z,96695.97
2023-03-29T02:07:08.863Z,96711.88
2023-03-29T02:08:40.717Z,96700.81
2023-03-29T02:10:12.391Z,96722.59
2023-03-29T02:11:43.971Z,96698.63
2023-03-29T02:13:15.947Z,96690.22
2023-03-29T02:14:49.218Z,96691.94
2023-03-29T02:16:20.980Z,96687.09
2023-03-29T02:17:52.992Z,96656.25
2023-03-29T02:19:25.254Z,96638.81
2023-03-29T02:20:57.382Z,96633.81
2023-03-29T02:22:30.526Z,96643.94
2023-03-29T02:24:03.415Z,96653.75
2023-03-29T02:25:35.460Z,96652.50
2023-03-29T02:27:07.636Z,96657.34
2023-03-29T02:28:39.290Z,96663.09
2023-03-29T02:30:18.651Z,96670.19
2023-03-29T02:31:51.845Z,96658.47
2023-03-29T02:33:26.404Z,96666.41
2023-03-29T02:34:59.110Z,96657.16
2023-03-29T02:36:32.194Z,96644.50
2023-03-29T02:38:04.434Z,96650.56
2023-03-29T02:39:36.063Z,96657.16
2023-03-29T02:41:07.664Z,96661.84
2023-03-29T02:42:39.860Z,96657.81
2023-03-29T02:44:14.146Z,96668.84
2023-03-29T02:45:47.275Z,96672.75
2023-03-29T02:47:20.950Z,96668.19
2023-03-29T02:48:52.837Z,96658.41
2023-03-29T02:50:24.639Z,96659.19
2023-03-29T02:52:22.176Z,96654.69
2023-03-29T02:53:57.150Z,96652.81
2023-03-29T02:55:34.558Z,96659.81
2023-03-29T02:57:06.617Z,96643.63
2023-03-29T02:58:38.632Z,96651.25
2023-03-29T03:00:11.492Z,96658.25
2023-03-29T03:01:44.891Z,96656.06
2023-03-29T03:03:16.853Z,96647.22
2023-03-29T03:04:48.680Z,96655.31
2023-03-29T03:06:21.326Z,96651.56
2023-03-29T03:07:53.195Z,96643.31
2023-03-29T03:09:24.806Z,96646.44
2023-03-29T03:10:56.458Z,96645.78
2023-03-29T03:12:28.057Z,96671.88
2023-03-29T03:13:59.712Z,96668.00
2023-03-29T03:15:32.904Z,96671.19
2023-03-29T03:17:05.900Z,96655.31
2023-03-29T03:18:38.009Z,96640.38
2023-03-29T03:20:13.850Z,96624.31
2023-03-29T03:21:47.040Z,96630.34
2023-03-29T03:23:18.810Z,96630.06
2023-03-29T03:24:50.440Z,96634.13
2023-03-29T03:26:22.852Z,96636.47
2023-03-29T03:27:54.483Z,96627.28
2023-03-29T03:29:26.187Z,96613.72
2023-03-29T03:30:58.061Z,96609.06
2023-03-29T03:32:31.691Z,96616.38
2023-03-29T03:34:03.329Z,96623.06
2023-03-29T03:35:36.821Z,96618.41
2023-03-29T03:37:08.524Z,96616.38
2023-03-29T03:38:40.119Z,96611.38
2023-03-29T03:40:13.508Z,96592.84
2023-03-29T03:41:45.150Z,96595.81
2023-03-29T03:43:16.773Z,96603.91
2023-03-29T03:44:48.417Z,96609.06
2023-03-29T03:46:20.277Z,96609.84
2023-03-29T03:47:53.457Z,96621.84
2023-03-29T03:49:25.400Z,96619.50
2023-03-29T03:50:58.220Z,96632.44
2023-03-29T03:52:29.891Z,96629.50
2023-03-29T03:54:01.983Z,96619.06
2023-03-29T03:55:33.599Z,96622.97
2023-03-29T03:57:05.292Z,96626.09
2023-03-29T03:58:37.222Z,96627.97
2023-03-29T04:00:22.855Z,96637.47
2023-03-29T04:01:54.845Z,96654.28
2023-03-29T04:03:27.955Z,96664.59
2023-03-29T04:05:03.510Z,96660.84
2023-03-29T04:06:35.136Z,96671.75
2023-03-29T04:08:06.819Z,96640.28
2023-03-29T04:09:38.860Z,96625.78
2023-03-29T04:11:10.642Z,96632.78
2023-03-29T04:12:42.252Z,96661.94
2023-03-29T04:14:13.843Z,96650.72
2023-03-29T04:15:46.161Z,96641.19
2023-03-29T04:17:17.909Z,96642.13
2023-03-29T04:18:50.891Z,96647.88
2023-03-29T04:20:22.724Z,96644.94
2023-03-29T04:21:54.346Z,96638.22
2023-03-29T04:23:25.934Z,96636.38
2023-03-29T04:24:57.520Z,96627.63
2023-03-29T04:26:29.170Z,96617.66
2023-03-29T04:28:00.907Z,96622.97
2023-03-29T04:29:32.589Z,96612.22
2023-03-29T04:31:04.797Z,96603.78
2023-03-29T04:32:36.699Z,96625.63
2023-03-29T04:34:09.701Z,96625.00
2023-03-29T04:35:41.362Z,96632.94
2023-03-29T04:37:13.000Z,96631.84
2023-03-29T04:38:47.794Z,96619.22
2023-03-29T04:40:20.869Z,96620.94
2023-03-29T04:41:52.489Z,96618.59
2023-03-29T04:43:24.138Z,96606.72
2023-03-29T04:44:55.751Z,96603.13
2023-03-29T04:46:27.767Z,96596.75
2023-03-29T04:48:02.273Z,96586.47
2023-03-29T04:49:35.679Z,96597.72
2023-03-29T04:51:08.093Z,96608.31
2023-03-29T04:52:39.681Z,96614.06
2023-03-29T04:54:11.284Z,96626.69
2023-03-29T04:55:42.879Z,96620.63
2023-03-29T04:57:14.488Z,96610.50
2023-03-29T04:58:46.192Z,96617.16
2023-03-29T05:00:20.355Z,96616.72
2023-03-29T05:01:52.447Z,96611.09
2023-03-29T05:03:24.528Z,96617.94
2023-03-29T05:04:57.758Z,96604.88
2023-03-29T05:06:29.381Z,96613.94
2023-03-29T05:08:01.246Z,96602.88
2023-03-29T05:09:35.397Z,96584.31
2023-03-29T05:11:07.444Z,96597.88
2023-03-29T05:12:39.075Z,96591.19
2023-03-29T05:14:10.761Z,96595.06
2023-03-29T05:15:42.715Z,96600.53
2023-03-29T05:17:14.414Z,96595.06
2023-03-29T05:18:49.361Z,96596.78
2023-03-29T05:20:22.774Z,96603.66
2023-03-29T05:21:54.439Z,96619.53
2023-03-29T05:23:26.225Z,96624.53
2023-03-29T05:24:57.878Z,96631.38
2023-03-29T05:26:29.682Z,96626.44
2023-03-29T05:28:02.327Z,96625.03
2023-03-29T05:29:33.999Z,96628.75
2023-03-29T05:31:06.337Z,96626.09
2023-03-29T05:32:38.357Z,96625.94
2023-03-29T05:34:10.013Z,96615.03
2023-03-29T05:35:43.630Z,96613.94
2023-03-29T05:37:15.242Z,96615.81
2023-03-29T05:38:46.867Z,96612.06
2023-03-29T05:40:18.988Z,96613.94
2023-03-29T05:41:50.655Z,96611.91
2023-03-29T05:43:22.339Z,96616.88
2023-03-29T05:44:54.612Z,96623.13
2023-03-29T05:46:26.323Z,96642.91
2023-03-29T05:47:58.254Z,96644.47
2023-03-29T05:49:29.914Z,96649.50
2023-03-29T05:51:03.532Z,96651.34
2023-03-29T05:52:35.373Z,96654.50
2023-03-29T05:54:07.033Z,96653.41
2023-03-29T05:55:38.687Z,96651.53
2023-03-29T05:57:10.378Z,96651.06
2023-03-29T05:58:42.098Z,96662.44
2023-03-29T06:00:20.121Z,96659.19
2023-03-29T06:01:52.023Z,96644.34
2023-03-29T06:03:27.319Z,96639.38
2023-03-29T06:04:59.207Z,96637.69
2023-03-29T06:06:32.267Z,96621.78
2023-03-29T06:08:04.112Z,96643.91
2023-03-29T06:09:35.832Z,96644.22
2023-03-29T06:11:09.151Z,96639.06
2023-03-29T06:12:41.045Z,96631.91
2023-03-29T06:14:13.780Z,96624.25
2023-03-29T06:15:46.009Z,96616.00
2023-03-29T06:17:17.697Z,96610.38
2023-03-29T06:18:49.383Z,96613.03
2023-03-29T06:20:21.531Z,96609.28
2023-03-29T06:21:54.592Z,96615.19
2023-03-29T06:23:28.409Z,96612.41
2023-03-29T06:25:00.156Z,96615.69
2023-03-29T06:26:31.784Z,96613.63
2023-03-29T06:28:04.032Z,96606.94
2023-03-29T06:29:35.855Z,96606.00
2023-03-29T06:31:10.117Z,96607.25
2023-03-29T06:32:42.011Z,96606.59
2023-03-29T06:34:13.831Z,96607.69
2023-03-29T06:35:46.527Z,96612.38
2023-03-29T06:37:19.616Z,96610.81
2023-03-29T06:38:51.246Z,96601.44
2023-03-29T06:40:23.031Z,96605.03
2023-03-29T06:41:56.611Z,96611.88
2023-03-29T06:43:28.258Z,96617.66
2023-03-29T06:45:00.027Z,96623.09
2023-03-29T06:46:31.802Z,96617.97
2023-03-29T06:48:03.901Z,96622.19
2023-03-29T06:49:35.572Z,96625.31
2023-03-29T06:51:07.660Z,96618.91
2023-03-29T06:52:40.755Z,96615.16
2023-03-29T06:54:12.341Z,96620.28
2023-03-29T06:55:44.008Z,96619.38
2023-03-29T06:57:15.797Z,96620.59
2023-03-29T06:58:48.537Z,96616.22
2023-03-29T07:00:30.089Z,96624.34
2023-03-29T07:02:02.759Z,96628.41
2023-03-29T07:03:35.998Z,96638.72
2023-03-29T07:05:11.603Z,96641.84
2023-03-29T07:06:48.324Z,96648.38
2023-03-29T07:08:22.471Z,96650.25
2023-03-29T07:09:54.604Z,96644.00
2023-03-29T07:11:26.202Z,96653.50
2023-03-29T07:12:57.900Z,96671.00
2023-03-29T07:14:33.428Z,96660.69
2023-03-29T07:16:06.644Z,96664.41
2023-03-29T07:17:38.375Z,96657.69
2023-03-29T07:19:10.732Z,96654.72
2023-03-29T07:20:42.586Z,96655.03
2023-03-29T07:22:15.249Z,96655.16
2023-03-29T07:23:48.261Z,96649.69
2023-03-29T07:25:20.294Z,96632.53
2023-03-29T07:27:03.168Z,96650.03
2023-03-29T07:28:37.572Z,96646.09
2023-03-29T07:30:11.394Z,96649.84
2023-03-29T07:31:43.850Z,96643.91
2023-03-29T07:33:15.907Z,96645.28
2023-03-29T07:34:49.287Z,96644.94
2023-03-29T07:36:21.180Z,96652.44
2023-03-29T07:37:54.885Z,96657.41
2023-03-29T07:39:28.109Z,96653.00
2023-03-29T07:40:59.973Z,96657.34
2023-03-29T07:42:31.838Z,96651.84
2023-03-29T07:44:09.076Z,96655.75
2023-03-29T07:45:42.363Z,96654.31
2023-03-29T07:47:14.299Z,96651.81
2023-03-29T07:48:45.987Z,96658.38
2023-03-29T07:50:18.101Z,96654.94
2023-03-29T07:51:49.732Z,96644.31
2023-03-29T07:53:21.718Z,96639.00
2023-03-29T07:54:55.632Z,96645.41
2023-03-29T07:56:27.252Z,96651.97
2023-03-29T07:57:59.118Z,96642.56
2023-03-29T07:59:31.032Z,96645.03
2023-03-29T08:01:02.794Z,96644.84
2023-03-29T08:02:34.694Z,96643.53
2023-03-29T08:04:06.535Z,96643.34
2023-03-29T08:05:41.783Z,96643.03
2023-03-29T08:07:14.420Z,96640.03
2023-03-29T08:08:47.408Z,96643.31
2023-03-29T08:10:20.710Z,96652.84
2023-03-29T08:11:52.436Z,96652.97
2023-03-29T08:13:24.084Z,96650.78
2023-03-29T08:14:56.895Z,96651.41
2023-03-29T08:16:28.704Z,96653.44
2023-03-29T08:18:00.394Z,96661.66
2023-03-29T08:19:32.280Z,96652.59
2023-03-29T08:21:04.856Z,96655.03
2023-03-29T08:22:37.235Z,96662.69
2023-03-29T08:24:09.378Z,96666.41
2023-03-29T08:25:42.364Z,96665.94
2023-03-29T08:27:13.985Z,96657.94
2023-03-29T08:28:45.619Z,96663.34
2023-03-29T08:30:17.516Z,96662.78
2023-03-29T08:31:49.318Z,96656.78
2023-03-29T08:33:24.732Z,96671.66
2023-03-29T08:34:56.378Z,96660.75
2023-03-29T08:36:28.206Z,96670.09
2023-03-29T08:37:59.871Z,96674.59
2023-03-29T08:39:32.613Z,96665.38
2023-03-29T08:41:11.133Z,96669.00
2023-03-29T08:42:55.319Z,96670.38
2023-03-29T08:44:37.099Z,96666.41
2023-03-29T08:46:13.802Z,96677.50
2023-03-29T08:47:48.848Z,96682.28
2023-03-29T08:49:20.848Z,96677.72
2023-03-29T08:50:54.018Z,96675.06
2023-03-29T08:52:31.537Z,96679.47
2023-03-29T08:54:05.296Z,96679.66
2023-03-29T08:55:38.379Z,96681.28
2023-03-29T08:57:14.775Z,96685.25
2023-03-29T08:58:48.156Z,96680.50
2023-03-29T09:00:24.563Z,96668.97
2023-03-29T09:01:57.572Z,96672.09
2023-03-29T09:03:31.447Z,96672.53
2023-03-29T09:05:07.786Z,96671.88
2023-03-29T09:06:39.437Z,96671.88
2023-03-29T09:08:13.373Z,96665.31
2023-03-29T09:09:45.034Z,96661.56
2023-03-29T09:11:32.874Z,96657.66
2023-03-29T09:13:13.671Z,96656.66
2023-03-29T09:15:00.347Z,96660.78
2023-03-29T09:16:33.674Z,96664.88
2023-03-29T09:18:08.160Z,96668.09
2023-03-29T09:19:42.086Z,96662.00
2023-03-29T09:21:16.783Z,96663.78
2023-03-29T09:22:51.524Z,96659.34
2023-03-29T09:24:42.717Z,96657.66
2023-03-29T09:26:18.257Z,96669.31
2023-03-29T09:27:52.552Z,96664.22
2023-03-29T09:29:32.950Z,96662.22
2023-03-29T09:31:06.268Z,96660.56
2023-03-29T09:32:41.304Z,96662.78
2023-03-29T09:34:14.578Z,96664.13
2023-03-29T09:35:49.634Z,96652.22
2023-03-29T09:37:23.093Z,96660.22
2023-03-29T09:38:55.543Z,96654.75
2023-03-29T09:40:31.056Z,96647.63
2023-03-29T09:42:04.293Z,96652.19
2023-03-29T09:43:37.121Z,96649.81
2023-03-29T09:45:10.910Z,96646.69
2023-03-29T09:46:43.480Z,96648.03
2023-03-29T09:48:15.757Z,96645.13
2023-03-29T09:49:49.020Z,96646.53
2023-03-29T09:51:21.603Z,96644.97
2023-03-29T09:52:53.205Z,96642.78
2023-03-29T09:54:24.882Z,96645.72
2023-03-29T09:55:56.678Z,96642.50
2023-03-29T09:57:28.448Z,96654.88
2023-03-29T09:59:00.654Z,96654.44
2023-03-29T10:00:33.631Z,96647.53
2023-03-29T10:02:06.466Z,96651.91
2023-03-29T10:03:41.609Z,96652.53
2023-03-29T10:05:15.582Z,96644.19
2023-03-29T10:06:49.416Z,96642.03
2023-03-29T10:08:22.868Z,96643.94
2023-03-29T10:09:55.136Z,96640.69
2023-03-29T10:11:29.528Z,96640.69
2023-03-29T10:13:05.504Z,96649.53
2023-03-29T10:14:38.168Z,96640.69
2023-03-29T10:16:20.475Z,96651.16
2023-03-29T10:17:57.855Z,96650.88
2023-03-29T10:19:38.296Z,96655.25
2023-03-29T10:21:11.514Z,96654.47
2023-03-29T10:22:48.240Z,96645.19
2023-03-29T10:24:20.565Z,96649.91
2023-03-29T10:25:53.178Z,96642.59
2023-03-29T10:27:27.084Z,96651.03
2023-03-29T10:29:01.489Z,96646.22
2023-03-29T10:30:37.296Z,96631.75
2023-03-29T10:32:17.771Z,96638.91
2023-03-29T10:33:53.124Z,96643.63
2023-03-29T10:35:27.782Z,96642.59
2023-03-29T10:37:00.949Z,96639.59
2023-03-29T10:38:39.575Z,96637.00
2023-03-29T10:40:18.322Z,96640.28
2023-03-29T10:41:50.162Z,96637.50
2023-03-29T10:43:22.660Z,96636.75
2023-03-29T10:44:54.641Z,96636.22
2023-03-29T10:46:28.338Z,96626.06
2023-03-29T10:48:03.367Z,96633.28
2023-03-29T10:49:40.321Z,96634.88
2023-03-29T10:51:11.938Z,96648.28
2023-03-29T10:52:43.605Z,96644.00
2023-03-29T10:54:17.323Z,96642.38
2023-03-29T10:55:52.134Z,96630.03
2023-03-29T10:57:27.286Z,96630.38
2023-03-29T10:59:09.232Z,96634.06
2023-03-29T11:00:42.675Z,96633.56
2023-03-29T11:02:41.777Z,96638.91
2023-03-29T11:04:20.809Z,96642.16
2023-03-29T11:05:54.472Z,96642.09
2023-03-29T11:07:28.770Z,96640.81
2023-03-29T11:09:02.079Z,96631.41
2023-03-29T11:10:40.070Z,96625.34
2023-03-29T11:12:15.983Z,96617.69
2023-03-29T11:13:50.503Z,96617.88
2023-03-29T11:15:31.366Z,96619.75
2023-03-29T11:17:12.167Z,96621.31
2023-03-29T11:18:54.389Z,96623.03
2023-03-29T11:20:41.108Z,96616.47
2023-03-29T11:22:14.752Z,96621.13
2023-03-29T11:23:49.928Z,96611.81
2023-03-29T11:25:30.049Z,96621.66
2023-03-29T11:27:11.813Z,96607.75
2023-03-29T11:28:46.620Z,96609.41
2023-03-29T11:30:21.594Z,96613.66
2023-03-29T11:31:57.876Z,96618.09
2023-03-29T11:33:35.487Z,96610.97
2023-03-29T11:35:13.374Z,96615.53
2023-03-29T11:36:50.528Z,96604.47
2023-03-29T11:38:28.345Z,96598.09
2023-03-29T11:40:07.350Z,96608.88
2023-03-29T11:41:39.887Z,96594.03
2023-03-29T11:43:13.696Z,96607.94
2023-03-29T11:44:45.385Z,96606.97
2023-03-29T11:46:18.269Z,96605.66
2023-03-29T11:47:49.959Z,96606.44
2023-03-29T11:49:24.583Z,96601.78
2023-03-29T11:51:46.673Z,96606.66
2023-03-29T11:58:47.531Z,96603.56
2023-03-29T12:15:05.345Z,96585.09
2023-03-29T12:16:46.903Z,96584.13
2023-03-29T12:24:06.625Z,96564.91
2023-03-29T12:26:27.198Z,96564.97
2023-03-29T12:30:55.128Z,96557.84
2023-03-29T12:32:36.767Z,96560.88
2023-03-29T12:37:32.246Z,96566.75
2023-03-29T12:39:04.124Z,96564.53
2023-03-29T12:40:44.765Z,96564.72
2023-03-29T12:43:07.169Z,96560.38
2023-03-29T12:47:23.772Z,96559.19
2023-03-29T12:48:57.343Z,96552.81
2023-03-29T12:50:33.218Z,96560.25
2023-03-29T12:52:08.598Z,96556.94
2023-03-29T12:53:40.892Z,96554.66
2023-03-29T12:55:25.217Z,96552.84
2023-03-29T12:56:58.579Z,96557.22
2023-03-29T12:58:50.589Z,96550.44
2023-03-29T13:00:25.365Z,96552.94
2023-03-29T13:01:58.605Z,96547.56
2023-03-29T13:03:35.729Z,96539.94
2023-03-29T13:05:29.293Z,96539.72
2023-03-29T13:07:04.350Z,96540.28
2023-03-29T13:08:37.010Z,96533.53
2023-03-29T13:10:29.545Z,96524.22
2023-03-29T13:12:05.936Z,96531.00
2023-03-29T13:13:38.102Z,96529.50
2023-03-29T13:15:22.976Z,96528.81
2023-03-29T13:16:54.630Z,96529.97
2023-03-29T13:18:40.460Z,96523.84
2023-03-29T13:20:23.447Z,96525.28
2023-03-29T13:22:00.425Z,96521.66
2023-03-29T13:23:39.702Z,96514.41
2023-03-29T13:25:20.271Z,96526.00
2023-03-29T13:26:55.300Z,96519.28
2023-03-29T13:28:29.722Z,96523.50
2023-03-29T13:30:20.805Z,96516.09
2023-03-29T13:31:56.479Z,96508.94
2023-03-29T13:33:41.873Z,96506.69
2023-03-29T13:35:19.362Z,96506.38
2023-03-29T13:36:56.736Z,96507.47
2023-03-29T13:38:44.246Z,96502.53
2023-03-29T13:40:33.338Z,96508.22
2023-03-29T13:42:16.576Z,96500.69
2023-03-29T13:43:51.473Z,96515.31
2023-03-29T13:45:25.306Z,96510.31
2023-03-29T13:47:16.252Z,96507.31
2023-03-29T13:49:01.091Z,96509.16
2023-03-29T13:50:37.351Z,96517.59
2023-03-29T13:52:16.256Z,96510.25
2023-03-29T13:53:49.900Z,96506.75
2023-03-29T13:55:22.667Z,96497.78
2023-03-29T13:57:00.172Z,96515.06
2023-03-29T13:58:34.112Z,96504.16
2023-03-29T14:00:11.880Z,96495.72
2023-03-29T14:01:45.705Z,96492.03
2023-03-29T14:03:18.256Z,96493.94
2023-03-29T14:04:51.352Z,96489.34
2023-03-29T14:06:25.522Z,96490.88
2023-03-29T14:07:57.298Z,96491.25
2023-03-29T14:09:30.168Z,96490.97
2023-03-29T14:11:01.948Z,96494.47
2023-03-29T14:12:35.418Z,96500.69
2023-03-29T14:14:08.327Z,96489.00
2023-03-29T14:15:43.735Z,96484.84
2023-03-29T14:17:18.072Z,96483.81
2023-03-29T14:18:51.436Z,96486.13
2023-03-29T14:20:24.569Z,96489.84
2023-03-29T14:21:57.094Z,96492.94
2023-03-29T14:23:30.554Z,96488.44
2023-03-29T14:25:05.306Z,96485.72
2023-03-29T14:26:37.267Z,96480.16
2023-03-29T14:28:29.890Z,96481.41
2023-03-29T14:30:01.797Z,96482.16
2023-03-29T14:31:34.201Z,96480.63
2023-03-29T14:33:06.123Z,96474.47
2023-03-29T14:34:37.923Z,96479.97
2023-03-29T14:36:12.727Z,96483.34
2023-03-29T14:37:44.369Z,96472.97
2023-03-29T14:39:17.489Z,96468.38
2023-03-29T14:40:49.099Z,96473.75
2023-03-29T14:42:28.478Z,96468.66
2023-03-29T14:44:00.135Z,96466.63
2023-03-29T14:45:32.263Z,96465.09
2023-03-29T14:47:04.028Z,96464.72
2023-03-29T14:48:35.999Z,96471.69
2023-03-29T14:50:10.134Z,96463.56
2023-03-29T14:51:44.246Z,96460.50
2023-03-29T14:53:17.328Z,96461.41
2023-03-29T14:54:51.297Z,96459.50
2023-03-29T14:56:25.429Z,96453.34
2023-03-29T14:57:57.327Z,96454.09
2023-03-29T14:59:32.350Z,96453.75
2023-03-29T15:01:04.946Z,96460.66
2023-03-29T15:02:36.688Z,96457.53
2023-03-29T15:04:09.185Z,96445.66
2023-03-29T15:05:41.425Z,96444.84
2023-03-29T15:07:14.740Z,96438.56
2023-03-29T15:09:01.445Z,96437.94
2023-03-29T15:10:36.217Z,96440.66
2023-03-29T15:12:13.846Z,96434.44
2023-03-29T15:13:46.036Z,96442.16
2023-03-29T15:15:17.832Z,96446.03
2023-03-29T15:16:50.163Z,96443.69
2023-03-29T15:18:24.048Z,96445.66
2023-03-29T15:19:58.137Z,96446.75
2023-03-29T15:21:31.295Z,96445.91
2023-03-29T15:23:09.551Z,96446.72
2023-03-29T15:24:42.629Z,96445.16
2023-03-29T15:26:14.936Z,96448.19
2023-03-29T15:27:49.028Z,96448.59
2023-03-29T15:29:23.786Z,96438.25
2023-03-29T15:31:07.679Z,96444.00
2023-03-29T15:32:41.508Z,96441.75
2023-03-29T15:34:13.861Z,96440.91
2023-03-29T15:35:48.151Z,96432.78
2023-03-29T15:37:19.842Z,96432.00
2023-03-29T15:38:52.873Z,96430.72
2023-03-29T15:40:26.371Z,96423.38
2023-03-29T15:41:58.136Z,96427.09
2023-03-29T15:43:30.884Z,96431.38
2023-03-29T15:45:03.652Z,96422.06
2023-03-29T15:46:35.356Z,96431.53
2023-03-29T15:48:14.197Z,96421.88
2023-03-29T15:49:46.348Z,96423.00
2023-03-29T15:51:18.146Z,96423.06
2023-03-29T15:52:49.832Z,96420.81
2023-03-29T15:54:24.469Z,96418.75
2023-03-29T15:55:58.453Z,96411.50
2023-03-29T15:57:30.352Z,96409.84
2023-03-29T15:59:02.145Z,96419.84
2023-03-29T16:00:33.792Z,96420.19
2023-03-29T16:02:05.693Z,96424.28
2023-03-29T16:03:38.275Z,96414.66
2023-03-29T16:05:10.593Z,96421.66
2023-03-29T16:06:42.445Z,96419.63
2023-03-29T16:08:14.193Z,96416.47
2023-03-29T16:09:47.237Z,96416.47
2023-03-29T16:11:18.915Z,96421.47
2023-03-29T16:12:50.698Z,96419.06
2023-03-29T16:14:24.259Z,96413.72
2023-03-29T16:15:56.995Z,96427.13
2023-03-29T16:17:28.632Z,96420.63
2023-03-29T16:19:00.285Z,96416.72
2023-03-29T16:20:32.284Z,96419.84
2023-03-29T16:22:07.188Z,96410.97
2023-03-29T16:23:38.932Z,96426.69
2023-03-29T16:25:14.732Z,96421.31
2023-03-29T16:26:46.696Z,96420.94
2023-03-29T16:28:18.328Z,96415.88
2023-03-29T16:29:49.928Z,96423.88
2023-03-29T16:31:23.612Z,96425.38
2023-03-29T16:32:55.318Z,96427.66
2023-03-29T16:34:27.015Z,96423.06
2023-03-29T16:35:58.740Z,96421.06
2023-03-29T16:37:30.523Z,96426.06
2023-03-29T16:39:03.101Z,96424.59
2023-03-29T16:40:36.215Z,96429.97
2023-03-29T16:42:08.959Z,96425.00
2023-03-29T16:43:40.863Z,96425.41
2023-03-29T16:45:13.021Z,96420.09
2023-03-29T16:46:44.793Z,96417.81
2023-03-29T16:48:17.311Z,96422.03
2023-03-29T16:49:48.993Z,96420.81
2023-03-29T16:51:20.810Z,96424.63
2023-03-29T16:52:52.746Z,96410.06
2023-03-29T16:54:25.879Z,96413.84
2023-03-29T16:55:58.941Z,96418.38
2023-03-29T16:57:30.682Z,96420.25
2023-03-29T16:59:02.465Z,96432.09
2023-03-29T17:00:34.097Z,96430.56
2023-03-29T17:02:05.917Z,96419.84
2023-03-29T17:03:37.749Z,96415.25
2023-03-29T17:05:10.331Z,96425.97
2023-03-29T17:06:42.734Z,96432.19
2023-03-29T17:08:14.431Z,96420.69
2023-03-29T17:09:46.265Z,96432.16
2023-03-29T17:11:23.071Z,96434.94
2023-03-29T17:12:54.776Z,96438.38
2023-03-29T17:14:26.561Z,96441.00
2023-03-29T17:15:58.288Z,96435.91
2023-03-29T17:17:29.980Z,96429.66
2023-03-29T17:19:01.704Z,96431.06
2023-03-29T17:20:33.328Z,96425.50
2023-03-29T17:22:04.959Z,96432.03
2023-03-29T17:23:36.800Z,96423.19
2023-03-29T17:25:08.805Z,96431.94
2023-03-29T17:26:45.188Z,96430.72
2023-03-29T17:28:17.437Z,96431.88
2023-03-29T17:29:49.035Z,96422.75
2023-03-29T17:31:20.698Z,96421.97
2023-03-29T17:32:52.443Z,96430.16
2023-03-29T17:34:24.138Z,96423.75
2023-03-29T17:35:56.057Z,96423.28
2023-03-29T17:37:30.689Z,96418.66
2023-03-29T17:39:02.927Z,96423.09
2023-03-29T17:40:34.729Z,96425.06
2023-03-29T17:42:07.762Z,96424.88
2023-03-29T17:43:39.468Z,96420.34
2023-03-29T17:45:11.570Z,96423.84
2023-03-29T17:46:43.254Z,96418.47
2023-03-29T17:48:14.938Z,96412.97
2023-03-29T17:49:46.629Z,96410.88
2023-03-29T17:51:18.401Z,96418.44
2023-03-29T17:52:50.434Z,96423.03
2023-03-29T17:54:22.108Z,96417.38
2023-03-29T17:55:53.750Z,96420.50
2023-03-29T17:57:26.868Z,96422.78
2023-03-29T17:58:58.564Z,96418.78
2023-03-29T18:00:30.203Z,96426.50
2023-03-29T18:02:05.359Z,96422.88
2023-03-29T18:03:37.409Z,96429.41
2023-03-29T18:05:12.764Z,96430.22
2023-03-29T18:06:45.621Z,96426.78
2023-03-29T18:08:17.401Z,96426.72
2023-03-29T18:09:50.292Z,96431.63
2023-03-29T18:11:22.815Z,96427.47
2023-03-29T18:12:56.110Z,96428.59
2023-03-29T18:14:27.805Z,96418.28
2023-03-29T18:15:59.491Z,96425.28
2023-03-29T18:17:31.510Z,96424.41
2023-03-29T18:19:03.812Z,96421.16
2023-03-29T18:20:35.593Z,96424.28
2023-03-29T18:22:07.326Z,96424.41
2023-03-29T18:23:40.009Z,96405.28
2023-03-29T18:25:18.604Z,96420.09
2023-03-29T18:26:55.372Z,96423.13
2023-03-29T18:28:28.448Z,96412.06
2023-03-29T18:30:02.641Z,96410.47
2023-03-29T18:31:35.848Z,96410.47
2023-03-29T18:33:07.694Z,96411.53
2023-03-29T18:34:39.525Z,96410.28
2023-03-29T18:36:13.308Z,96408.22
2023-03-29T18:37:45.376Z,96411.00
2023-03-29T18:39:17.510Z,96411.09
2023-03-29T18:40:49.303Z,96418.69
2023-03-29T18:42:21.873Z,96420.22
2023-03-29T18:43:57.318Z,96432.78
2023-03-29T18:45:29.115Z,96428.16
2023-03-29T18:47:01.183Z,96435.84
2023-03-29T18:48:38.581Z,96432.34
2023-03-29T18:50:11.910Z,96437.31
2023-03-29T18:51:44.083Z,96437.31
2023-03-29T18:53:15.960Z,96431.91
2023-03-29T18:54:47.630Z,96438.72
2023-03-29T18:56:19.587Z,96438.34
2023-03-29T18:57:51.231Z,96445.66
2023-03-29T18:59:24.366Z,96454.00